Time;durP1;ratioP1;P1;durP2;ratioP2;P2;SDS_P1;SDS_P2;PMS_P1;PMS_P2;Temp;Humidity;BMP_temperature;BMP_pressure;BME280_temperature;BME280_humidity;BME280_pressure;Samples;Min_cycle;Max_cycle;Signal;HPM_P1;HPM_P2
2023/07/26 00:00:19;;;;;;;57.63;3.20;;;;;;;;;;5091002;28;20452;-70
2023/07/26 00:02:45;;;;;;;57.97;2.80;;;;;;;;;;5091171;28;20819;-69
2023/07/26 00:05:12;;;;;;;57.57;4.33;;;;;;;;;;5091069;28;20940;-69
2023/07/26 00:07:39;;;;;;;56.77;2.80;;;;;;;;;;5091245;28;20447;-69
2023/07/26 00:10:06;;;;;;;57.00;3.10;;;;;;;;;;5091043;28;20454;-69
2023/07/26 00:12:33;;;;;;;57.00;3.07;;;;;;;;;;5084904;28;20481;-70
2023/07/26 00:15:01;;;;;;;57.10;3.00;;;;;;;;;;5084736;28;20489;-69
2023/07/26 00:17:29;;;;;;;57.10;2.70;;;;;;;;;;5083439;28;20459;-70
2023/07/26 00:19:56;;;;;;;57.83;3.63;;;;;;;;;;5087462;28;20459;-70
2023/07/26 00:22:23;;;;;;;56.67;2.40;;;;;;;;;;5086340;28;20472;-70
2023/07/26 00:24:51;;;;;;;56.77;3.00;;;;;;;;;;5094912;28;20458;-69
2023/07/26 00:27:18;;;;;;;57.00;3.07;;;;;;;;;;5094952;28;20774;-70
2023/07/26 00:29:46;;;;;;;58.90;5.10;;;;;;;;;;5094937;28;20551;-69
2023/07/26 00:32:13;;;;;;;56.57;2.70;;;;;;;;;;5094429;28;20467;-69
2023/07/26 00:34:41;;;;;;;56.60;2.60;;;;;;;;;;5094687;28;21027;-70
2023/07/26 00:37:08;;;;;;;56.80;2.87;;;;;;;;;;5094912;28;20449;-70
2023/07/26 00:39:35;;;;;;;56.67;2.50;;;;;;;;;;5094958;28;20461;-70
2023/07/26 00:42:02;;;;;;;56.60;2.30;;;;;;;;;;5094398;28;20468;-70
2023/07/26 00:44:29;;;;;;;57.03;3.20;;;;;;;;;;5094600;28;20445;-70
2023/07/26 00:46:57;;;;;;;57.37;3.43;;;;;;;;;;5094704;28;20843;-69
2023/07/26 00:49:24;;;;;;;57.10;2.87;;;;;;;;;;5094647;28;20457;-69
2023/07/26 00:51:52;;;;;;;58.53;4.90;;;;;;;;;;5094115;28;20466;-70
2023/07/26 00:54:21;;;;;;;62.00;3.63;;;;;;;;;;5078404;28;20455;-68
2023/07/26 00:56:48;;;;;;;58.07;3.53;;;;;;;;;;5074078;28;20494;-70
2023/07/26 00:59:15;;;;;;;57.30;3.23;;;;;;;;;;5074047;28;20454;-69
2023/07/26 01:01:43;;;;;;;58.27;4.57;;;;;;;;;;5073863;28;20826;-70
2023/07/26 01:04:10;;;;;;;56.57;2.57;;;;;;;;;;5074109;28;20450;-69
2023/07/26 01:06:42;;;;;;;57.03;2.80;;;;;;;;;;5074009;28;20805;-70
2023/07/26 01:09:15;;;;;;;56.77;2.80;;;;;;;;;;5073997;28;20447;-70
2023/07/26 01:11:48;;;;;;;56.97;3.13;;;;;;;;;;5073572;28;20455;-69
2023/07/26 01:14:19;;;;;;;57.20;3.60;;;;;;;;;;5073988;28;20509;-70
2023/07/26 01:16:46;;;;;;;56.67;2.70;;;;;;;;;;5073819;28;20439;-69
2023/07/26 01:19:13;;;;;;;56.77;2.90;;;;;;;;;;5073985;28;20454;-70
2023/07/26 01:21:42;;;;;;;56.90;2.93;;;;;;;;;;5073282;28;20470;-70
2023/07/26 01:24:09;;;;;;;56.73;2.60;;;;;;;;;;5073842;28;20447;-70
2023/07/26 01:26:38;;;;;;;56.80;2.60;;;;;;;;;;5073423;28;20939;-70
2023/07/26 01:29:05;;;;;;;57.20;2.80;;;;;;;;;;5073958;28;20538;-69
2023/07/26 01:31:32;;;;;;;56.50;2.40;;;;;;;;;;5073290;28;20843;-70
2023/07/26 01:33:59;;;;;;;56.43;2.60;;;;;;;;;;5073530;28;20936;-70
2023/07/26 01:36:29;;;;;;;57.00;2.70;;;;;;;;;;5071678;28;20487;-68
2023/07/26 01:38:58;;;;;;;57.30;2.97;;;;;;;;;;5073195;28;20477;-70
2023/07/26 01:41:26;;;;;;;56.60;2.30;;;;;;;;;;5072830;28;20943;-70
2023/07/26 01:43:53;;;;;;;56.40;2.33;;;;;;;;;;5073292;28;20455;-69
2023/07/26 01:46:20;;;;;;;57.50;3.17;;;;;;;;;;5073123;28;20440;-70
2023/07/26 01:48:47;;;;;;;57.07;2.70;;;;;;;;;;5073164;28;20818;-69
2023/07/26 01:51:14;;;;;;;57.07;3.20;;;;;;;;;;5073544;28;20447;-70
2023/07/26 01:53:41;;;;;;;60.70;3.47;;;;;;;;;;5072963;28;20501;-69
2023/07/26 01:56:10;;;;;;;57.00;2.90;;;;;;;;;;5072751;28;20487;-70
2023/07/26 01:58:37;;;;;;;56.70;2.67;;;;;;;;;;5073124;28;20467;-69
2023/07/26 02:01:05;;;;;;;56.67;2.50;;;;;;;;;;5072544;28;20455;-70
2023/07/26 02:03:32;;;;;;;57.07;3.07;;;;;;;;;;5073051;28;20469;-70
2023/07/26 02:05:59;;;;;;;57.20;2.73;;;;;;;;;;5072950;28;20485;-70
2023/07/26 02:08:26;;;;;;;57.27;2.50;;;;;;;;;;5072668;28;20455;-69
2023/07/26 02:10:54;;;;;;;56.97;2.67;;;;;;;;;;5072502;28;20458;-68
2023/07/26 02:13:22;;;;;;;56.57;2.50;;;;;;;;;;5079476;28;20993;-70
2023/07/26 02:15:49;;;;;;;56.27;2.30;;;;;;;;;;5081811;28;20479;-70
2023/07/26 02:18:16;;;;;;;56.97;2.50;;;;;;;;;;5084448;28;20442;-69
2023/07/26 02:20:43;;;;;;;56.90;2.70;;;;;;;;;;5092667;28;20565;-70
2023/07/26 02:23:10;;;;;;;56.60;2.50;;;;;;;;;;5092779;28;20477;-70
2023/07/26 02:28:42;;;;;;;56.67;2.40;;;;;;;;;;5075577;28;20409;-70
2023/07/26 02:31:09;;;;;;;56.47;2.30;;;;;;;;;;5071709;28;20923;-69
2023/07/26 02:33:36;;;;;;;56.57;2.40;;;;;;;;;;5083267;28;20998;-69
2023/07/26 02:36:03;;;;;;;56.77;2.40;;;;;;;;;;5092126;28;21009;-70
2023/07/26 02:38:30;;;;;;;56.43;2.37;;;;;;;;;;5073350;28;20451;-69
2023/07/26 02:40:57;;;;;;;56.70;2.50;;;;;;;;;;5079972;28;20450;-70
2023/07/26 02:43:25;;;;;;;56.53;2.33;;;;;;;;;;5080290;28;20493;-68
2023/07/26 02:45:53;;;;;;;57.10;3.00;;;;;;;;;;5089892;28;20439;-70
2023/07/26 02:48:20;;;;;;;56.90;3.17;;;;;;;;;;5092212;28;20954;-70
2023/07/26 02:50:47;;;;;;;56.60;2.50;;;;;;;;;;5092100;28;20452;-69
2023/07/26 02:53:14;;;;;;;56.60;2.50;;;;;;;;;;5092270;28;20466;-70
2023/07/26 02:55:42;;;;;;;56.37;2.30;;;;;;;;;;5091868;28;20496;-70
2023/07/26 02:58:09;;;;;;;56.57;2.60;;;;;;;;;;5092151;28;20459;-69
2023/07/26 03:00:36;;;;;;;56.43;2.37;;;;;;;;;;5091864;28;20934;-70
2023/07/26 03:03:05;;;;;;;56.67;2.60;;;;;;;;;;5091774;28;20475;-69
2023/07/26 03:05:33;;;;;;;57.47;3.10;;;;;;;;;;5092156;28;20448;-70
2023/07/26 03:08:00;;;;;;;56.70;2.60;;;;;;;;;;5092033;28;20964;-70
2023/07/26 03:10:27;;;;;;;56.60;2.30;;;;;;;;;;5091790;28;20449;-70
2023/07/26 03:12:55;;;;;;;56.73;2.70;;;;;;;;;;5091745;28;20474;-70
2023/07/26 03:15:23;;;;;;;56.60;2.23;;;;;;;;;;5091844;28;20475;-70
2023/07/26 03:17:50;;;;;;;56.50;2.33;;;;;;;;;;5091628;28;20457;-69
2023/07/26 03:20:18;;;;;;;56.47;2.40;;;;;;;;;;5091438;28;20457;-70
2023/07/26 03:22:45;;;;;;;56.47;2.40;;;;;;;;;;5091624;28;20473;-70
2023/07/26 03:25:12;;;;;;;56.97;2.90;;;;;;;;;;5091416;28;20450;-70
2023/07/26 03:27:39;;;;;;;57.30;2.80;;;;;;;;;;5091477;28;20455;-69
2023/07/26 03:30:07;;;;;;;56.77;2.57;;;;;;;;;;5091243;28;20454;-69
2023/07/26 03:32:34;;;;;;;58.70;2.60;;;;;;;;;;5091605;28;20475;-69
2023/07/26 03:35:01;;;;;;;56.77;2.50;;;;;;;;;;5091621;28;20557;-70
2023/07/26 03:37:30;;;;;;;56.67;2.60;;;;;;;;;;5091423;28;20449;-69
2023/07/26 03:39:57;;;;;;;56.50;2.30;;;;;;;;;;5091556;28;20457;-70
2023/07/26 03:42:24;;;;;;;57.07;3.00;;;;;;;;;;5091116;28;20474;-70
2023/07/26 03:44:51;;;;;;;56.90;2.57;;;;;;;;;;5091188;28;20454;-72
2023/07/26 03:47:18;;;;;;;57.07;2.50;;;;;;;;;;5091501;28;20474;-70
2023/07/26 03:49:45;;;;;;;57.30;2.60;;;;;;;;;;5091379;28;20442;-69
2023/07/26 03:52:12;;;;;;;56.80;2.50;;;;;;;;;;5091069;28;20497;-70
2023/07/26 03:54:41;;;;;;;57.10;2.70;;;;;;;;;;5091177;28;20466;-70
2023/07/26 03:57:08;;;;;;;56.73;2.80;;;;;;;;;;5091072;28;21005;-70
2023/07/26 03:59:35;;;;;;;57.10;3.00;;;;;;;;;;5091298;28;20446;-70
2023/07/26 04:02:03;;;;;;;56.97;2.60;;;;;;;;;;5091042;28;20462;-70
2023/07/26 04:04:30;;;;;;;57.10;2.97;;;;;;;;;;5091205;28;20450;-70
2023/07/26 04:06:57;;;;;;;57.13;2.60;;;;;;;;;;5091224;28;20449;-70
2023/07/26 04:09:24;;;;;;;56.60;2.37;;;;;;;;;;5091148;28;20813;-69
2023/07/26 04:11:56;;;;;;;57.20;3.20;;;;;;;;;;5090674;28;20466;-70
2023/07/26 04:14:23;;;;;;;56.77;2.70;;;;;;;;;;5085407;28;20466;-70
2023/07/26 04:16:50;;;;;;;57.00;2.90;;;;;;;;;;5070934;28;20487;-69
2023/07/26 04:19:17;;;;;;;56.63;2.40;;;;;;;;;;5070917;28;20449;-70
2023/07/26 04:21:44;;;;;;;56.87;3.27;;;;;;;;;;5070528;28;20455;-70
2023/07/26 04:24:11;;;;;;;57.00;2.70;;;;;;;;;;5070709;28;20447;-70
2023/07/26 04:26:38;;;;;;;56.90;2.30;;;;;;;;;;5070903;28;20436;-70
2023/07/26 04:29:07;;;;;;;56.57;2.40;;;;;;;;;;5064835;28;21069;-70
2023/07/26 04:31:34;;;;;;;56.90;2.40;;;;;;;;;;5082180;28;20473;-69
2023/07/26 04:34:01;;;;;;;58.50;3.23;;;;;;;;;;5079731;28;20458;-70
2023/07/26 04:36:28;;;;;;;56.97;2.40;;;;;;;;;;5085341;28;20484;-70
2023/07/26 04:38:55;;;;;;;56.60;2.30;;;;;;;;;;5090797;28;20442;-70
2023/07/26 04:41:22;;;;;;;57.30;2.90;;;;;;;;;;5090385;28;20442;-69
2023/07/26 04:43:49;;;;;;;56.90;2.57;;;;;;;;;;5091001;28;20466;-70
2023/07/26 04:46:18;;;;;;;56.47;2.43;;;;;;;;;;5090727;28;20444;-69
2023/07/26 04:48:45;;;;;;;56.70;2.40;;;;;;;;;;5090705;28;20464;-70
2023/07/26 04:51:13;;;;;;;56.80;2.60;;;;;;;;;;5090437;28;20454;-70
2023/07/26 04:53:40;;;;;;;56.47;2.33;;;;;;;;;;5090786;28;20990;-70
2023/07/26 04:56:07;;;;;;;56.87;2.50;;;;;;;;;;5090323;28;20493;-69
2023/07/26 04:58:34;;;;;;;56.90;2.60;;;;;;;;;;5093507;28;20960;-70
2023/07/26 05:01:01;;;;;;;56.47;2.30;;;;;;;;;;5094346;28;20460;-70
2023/07/26 05:03:29;;;;;;;57.00;2.80;;;;;;;;;;5094007;28;20463;-70
2023/07/26 05:05:57;;;;;;;56.47;2.40;;;;;;;;;;5093984;28;20465;-69
2023/07/26 05:08:24;;;;;;;56.70;2.20;;;;;;;;;;5094200;28;20953;-70
2023/07/26 05:10:51;;;;;;;56.90;2.43;;;;;;;;;;5093928;28;20446;-68
2023/07/26 05:13:19;;;;;;;56.47;2.40;;;;;;;;;;5094113;28;20463;-70
2023/07/26 05:15:46;;;;;;;56.47;2.30;;;;;;;;;;5093926;28;20458;-70
2023/07/26 05:18:14;;;;;;;56.60;2.60;;;;;;;;;;5094119;28;20533;-69
2023/07/26 05:20:43;;;;;;;56.53;2.43;;;;;;;;;;5093558;28;20454;-71
2023/07/26 05:23:10;;;;;;;56.60;2.57;;;;;;;;;;5093920;28;20471;-70
2023/07/26 05:25:39;;;;;;;59.97;2.70;;;;;;;;;;5093626;28;20455;-70
2023/07/26 05:28:06;;;;;;;56.57;2.57;;;;;;;;;;5093763;28;20454;-70
2023/07/26 05:30:37;;;;;;;56.80;2.97;;;;;;;;;;5093568;28;20946;-70
2023/07/26 05:33:04;;;;;;;56.23;2.33;;;;;;;;;;5093448;28;20476;-69
2023/07/26 05:35:31;;;;;;;56.70;2.40;;;;;;;;;;5093679;28;20457;-70
2023/07/26 05:38:00;;;;;;;56.27;2.17;;;;;;;;;;5093586;28;20482;-70
2023/07/26 05:40:27;;;;;;;56.47;2.40;;;;;;;;;;5093360;28;20481;-71
2023/07/26 05:42:54;;;;;;;56.33;2.33;;;;;;;;;;5093387;28;20478;-70
2023/07/26 05:45:21;;;;;;;56.90;2.80;;;;;;;;;;5094567;28;20455;-71
2023/07/26 05:47:48;;;;;;;56.33;2.47;;;;;;;;;;5093201;28;20537;-70
2023/07/26 05:50:15;;;;;;;56.40;2.20;;;;;;;;;;5093203;28;20454;-71
2023/07/26 05:52:43;;;;;;;56.57;2.80;;;;;;;;;;5093422;28;20477;-70
2023/07/26 05:55:12;;;;;;;56.23;2.30;;;;;;;;;;5093061;28;20463;-69
2023/07/26 05:57:39;;;;;;;56.27;2.10;;;;;;;;;;5093072;28;20478;-71
2023/07/26 06:00:07;;;;;;;57.07;2.70;;;;;;;;;;5092950;28;20533;-70
2023/07/26 06:02:34;;;;;;;58.37;4.13;;;;;;;;;;5093156;28;20469;-70
2023/07/26 06:05:01;;;;;;;56.67;2.50;;;;;;;;;;5093238;28;20453;-71
2023/07/26 06:07:29;;;;;;;56.57;2.20;;;;;;;;;;5093071;28;20938;-71
2023/07/26 06:09:56;;;;;;;56.90;2.60;;;;;;;;;;5091980;28;20446;-71
2023/07/26 06:12:24;;;;;;;57.20;2.93;;;;;;;;;;5092622;28;20474;-71
2023/07/26 06:14:51;;;;;;;56.37;2.27;;;;;;;;;;5092491;28;20438;-71
2023/07/26 06:17:18;;;;;;;56.70;2.30;;;;;;;;;;5092440;28;20519;-71
2023/07/26 06:19:45;;;;;;;56.37;2.70;;;;;;;;;;5092828;28;20451;-70
2023/07/26 06:22:12;;;;;;;56.40;2.43;;;;;;;;;;5092408;28;20478;-71
2023/07/26 06:24:40;;;;;;;56.10;2.13;;;;;;;;;;5092498;28;20960;-71
2023/07/26 06:27:07;;;;;;;56.67;2.60;;;;;;;;;;5092492;28;20442;-71
2023/07/26 06:29:37;;;;;;;56.30;2.50;;;;;;;;;;5074549;28;20466;-71
2023/07/26 06:32:04;;;;;;;56.47;2.10;;;;;;;;;;5082884;28;20470;-69
2023/07/26 06:34:31;;;;;;;56.43;2.20;;;;;;;;;;5090187;28;20446;-71
2023/07/26 06:36:58;;;;;;;56.50;2.20;;;;;;;;;;5082560;28;20487;-71
2023/07/26 06:39:27;;;;;;;56.57;2.33;;;;;;;;;;5092286;28;20943;-68
2023/07/26 06:41:55;;;;;;;56.20;2.10;;;;;;;;;;5091739;28;20467;-70
2023/07/26 06:44:22;;;;;;;56.27;2.10;;;;;;;;;;5092470;28;20545;-70
2023/07/26 06:46:50;;;;;;;56.57;2.10;;;;;;;;;;5091057;28;20813;-70
2023/07/26 06:49:17;;;;;;;56.03;2.00;;;;;;;;;;5076861;28;20457;-71
2023/07/26 06:51:44;;;;;;;56.07;1.90;;;;;;;;;;5083428;28;20438;-70
2023/07/26 06:54:12;;;;;;;56.40;2.07;;;;;;;;;;5092001;28;21098;-71
2023/07/26 06:56:39;;;;;;;57.03;2.40;;;;;;;;;;5092491;28;20486;-70
2023/07/26 06:59:11;;;;;;;56.50;2.40;;;;;;;;;;5092188;28;20454;-70
2023/07/26 07:01:38;;;;;;;56.47;2.77;;;;;;;;;;5092245;28;20576;-70
2023/07/26 07:04:06;;;;;;;56.37;2.20;;;;;;;;;;5091993;28;20457;-70
2023/07/26 07:06:34;;;;;;;56.40;2.03;;;;;;;;;;5091924;28;20468;-70
2023/07/26 07:09:01;;;;;;;56.47;2.37;;;;;;;;;;5091832;28;20462;-69
2023/07/26 07:11:28;;;;;;;56.33;2.23;;;;;;;;;;5091788;28;20447;-70
2023/07/26 07:13:56;;;;;;;56.60;2.13;;;;;;;;;;5091732;28;20462;-70
2023/07/26 07:16:23;;;;;;;56.30;2.00;;;;;;;;;;5091863;28;20853;-72
2023/07/26 07:18:50;;;;;;;56.40;2.00;;;;;;;;;;5091955;28;20557;-70
2023/07/26 07:21:20;;;;;;;56.20;2.00;;;;;;;;;;5091063;28;20447;-70
2023/07/26 07:23:47;;;;;;;56.67;2.40;;;;;;;;;;5091794;28;20994;-71
2023/07/26 07:26:14;;;;;;;56.47;2.27;;;;;;;;;;5091608;28;20453;-71
2023/07/26 07:28:41;;;;;;;56.40;2.10;;;;;;;;;;5091647;28;20449;-71
2023/07/26 07:31:08;;;;;;;56.20;2.00;;;;;;;;;;5091260;28;20860;-72
2023/07/26 07:33:36;;;;;;;56.43;2.37;;;;;;;;;;5091501;28;20468;-72
2023/07/26 07:36:04;;;;;;;56.33;2.40;;;;;;;;;;5091168;28;20500;-71
2023/07/26 07:38:33;;;;;;;56.40;2.27;;;;;;;;;;5091612;28;20485;-71
2023/07/26 07:41:00;;;;;;;56.60;3.17;;;;;;;;;;5091081;28;20956;-71
2023/07/26 07:43:27;;;;;;;56.20;2.00;;;;;;;;;;5091466;28;20739;-72
2023/07/26 07:45:54;;;;;;;56.23;1.90;;;;;;;;;;5091221;28;20449;-71
2023/07/26 07:48:21;;;;;;;56.23;2.00;;;;;;;;;;5091323;28;20449;-71
2023/07/26 07:50:54;;;;;;;56.57;2.07;;;;;;;;;;5090942;28;20976;-72
2023/07/26 07:53:21;;;;;;;58.17;2.10;;;;;;;;;;5077256;28;20475;-72
2023/07/26 07:55:49;;;;;;;56.47;2.27;;;;;;;;;;5069947;28;20569;-72
2023/07/26 07:58:17;;;;;;;56.63;2.10;;;;;;;;;;5070193;28;20487;-71
2023/07/26 08:00:44;;;;;;;56.30;1.90;;;;;;;;;;5070579;28;20451;-70
2023/07/26 08:03:11;;;;;;;56.70;2.53;;;;;;;;;;5070715;28;20475;-72
2023/07/26 08:05:38;;;;;;;56.53;2.43;;;;;;;;;;5070856;28;20970;-71
2023/07/26 08:08:06;;;;;;;56.40;2.33;;;;;;;;;;5071090;28;20443;-71
2023/07/26 08:10:33;;;;;;;56.40;2.10;;;;;;;;;;5070866;28;20910;-71
2023/07/26 08:13:01;;;;;;;56.27;2.10;;;;;;;;;;5070860;28;20566;-70
2023/07/26 08:15:32;;;;;;;56.17;2.13;;;;;;;;;;5070707;28;20466;-71
2023/07/26 08:18:00;;;;;;;56.57;2.10;;;;;;;;;;5070851;28;20578;-71
2023/07/26 08:20:27;;;;;;;56.60;2.10;;;;;;;;;;5070424;28;20452;-71
2023/07/26 08:22:54;;;;;;;56.47;2.80;;;;;;;;;;5070840;28;20467;-72
2023/07/26 08:25:21;;;;;;;57.97;2.83;;;;;;;;;;5070821;28;20454;-71
2023/07/26 08:27:48;;;;;;;56.60;2.27;;;;;;;;;;5070783;28;20939;-71
2023/07/26 08:30:17;;;;;;;56.50;2.00;;;;;;;;;;5076803;28;20517;-71
2023/07/26 08:32:44;;;;;;;56.40;2.17;;;;;;;;;;5082199;28;20474;-72
2023/07/26 08:35:11;;;;;;;56.50;2.20;;;;;;;;;;5086390;28;20446;-70
2023/07/26 08:37:38;;;;;;;56.43;2.10;;;;;;;;;;5086149;28;20481;-71
2023/07/26 08:40:06;;;;;;;56.40;2.10;;;;;;;;;;5094571;28;20450;-69
2023/07/26 08:42:33;;;;;;;56.33;2.00;;;;;;;;;;5094461;28;20505;-70
2023/07/26 08:45:01;;;;;;;56.33;2.10;;;;;;;;;;5094530;28;20839;-70
2023/07/26 08:47:30;;;;;;;56.40;2.10;;;;;;;;;;5094711;28;20447;-70
2023/07/26 08:49:58;;;;;;;56.37;2.50;;;;;;;;;;5094611;28;20446;-70
2023/07/26 08:52:25;;;;;;;56.27;2.10;;;;;;;;;;5094328;28;21072;-70
2023/07/26 08:54:54;;;;;;;56.47;2.20;;;;;;;;;;5094359;28;20476;-71
2023/07/26 08:57:21;;;;;;;56.53;2.30;;;;;;;;;;5094046;28;20490;-71
2023/07/26 08:59:48;;;;;;;57.20;2.33;;;;;;;;;;5094224;28;20452;-70
2023/07/26 09:02:17;;;;;;;58.00;3.07;;;;;;;;;;5094450;28;20470;-70
2023/07/26 09:04:47;;;;;;;56.87;2.80;;;;;;;;;;5094835;28;20482;-71
2023/07/26 09:07:14;;;;;;;56.57;2.57;;;;;;;;;;5094169;28;20446;-70
2023/07/26 09:09:42;;;;;;;56.50;2.07;;;;;;;;;;5094146;28;20454;-70
2023/07/26 09:12:09;;;;;;;56.43;2.30;;;;;;;;;;5093987;28;20483;-70
2023/07/26 09:14:36;;;;;;;56.33;2.00;;;;;;;;;;5094219;28;20450;-71
2023/07/26 09:17:04;;;;;;;56.60;2.10;;;;;;;;;;5093949;28;20841;-70
2023/07/26 09:19:32;;;;;;;56.47;2.13;;;;;;;;;;5093931;28;20450;-70
2023/07/26 09:22:03;;;;;;;56.97;2.87;;;;;;;;;;5093562;28;20470;-71
2023/07/26 09:24:33;;;;;;;56.60;2.30;;;;;;;;;;5093764;28;20454;-70
2023/07/26 09:27:03;;;;;;;56.20;2.00;;;;;;;;;;5093976;28;20524;-71
2023/07/26 09:29:30;;;;;;;56.50;2.30;;;;;;;;;;5094044;28;20446;-70
2023/07/26 09:31:58;;;;;;;56.30;1.90;;;;;;;;;;5079363;28;20477;-70
2023/07/26 09:34:25;;;;;;;56.33;2.00;;;;;;;;;;5073095;28;20450;-70
2023/07/26 09:36:51;;;;;;;56.23;1.90;;;;;;;;;;5073213;28;20478;-70
2023/07/26 09:39:21;;;;;;;56.80;2.30;;;;;;;;;;5073452;28;20556;-71
2023/07/26 09:41:49;;;;;;;56.37;2.10;;;;;;;;;;5073041;28;20486;-71
2023/07/26 09:44:17;;;;;;;56.37;2.00;;;;;;;;;;5073117;28;20569;-71
2023/07/26 09:46:48;;;;;;;56.37;2.00;;;;;;;;;;5073253;28;20454;-71
2023/07/26 09:49:16;;;;;;;56.37;2.00;;;;;;;;;;5073075;28;20450;-70
2023/07/26 09:51:43;;;;;;;56.17;2.00;;;;;;;;;;5072952;28;20816;-71
2023/07/26 09:54:10;;;;;;;56.47;2.20;;;;;;;;;;5072933;28;20974;-71
2023/07/26 09:56:40;;;;;;;56.90;2.50;;;;;;;;;;5073036;28;20505;-70
2023/07/26 09:59:09;;;;;;;56.27;2.00;;;;;;;;;;5072954;28;20510;-71
2023/07/26 10:01:38;;;;;;;56.50;2.00;;;;;;;;;;5072628;28;21001;-71
2023/07/26 10:04:07;;;;;;;56.27;2.17;;;;;;;;;;5072742;28;20826;-71
2023/07/26 10:06:36;;;;;;;56.30;1.93;;;;;;;;;;5072837;28;20957;-71
2023/07/26 10:09:03;;;;;;;56.33;1.90;;;;;;;;;;5072880;28;20454;-71
2023/07/26 10:11:30;;;;;;;56.33;2.00;;;;;;;;;;5072360;28;20448;-70
2023/07/26 10:14:00;;;;;;;56.37;2.00;;;;;;;;;;5072777;28;20822;-70
2023/07/26 10:16:27;;;;;;;56.47;2.13;;;;;;;;;;5073027;28;20459;-70
2023/07/26 10:18:55;;;;;;;56.37;2.00;;;;;;;;;;5072702;28;20491;-70
2023/07/26 10:21:23;;;;;;;56.27;1.90;;;;;;;;;;5072490;28;20447;-70
2023/07/26 10:23:50;;;;;;;56.30;1.90;;;;;;;;;;5072483;28;20463;-69
2023/07/26 10:26:17;;;;;;;56.17;2.00;;;;;;;;;;5072371;28;20447;-70
2023/07/26 10:28:45;;;;;;;56.17;2.00;;;;;;;;;;5067507;28;20490;-71
2023/07/26 10:31:13;;;;;;;56.37;2.10;;;;;;;;;;5085940;28;20470;-70
2023/07/26 10:33:46;;;;;;;56.17;1.80;;;;;;;;;;5080997;28;21051;-69
2023/07/26 10:36:15;;;;;;;56.33;2.00;;;;;;;;;;5077383;28;20451;-71
2023/07/26 10:38:42;;;;;;;56.40;2.10;;;;;;;;;;5092358;28;20494;-70
2023/07/26 10:41:21;;;;;;;56.07;2.00;;;;;;;;;;5086088;28;20452;-71
2023/07/26 10:43:50;;;;;;;56.30;2.13;;;;;;;;;;5089816;28;20466;-69
2023/07/26 10:46:20;;;;;;;56.07;2.10;;;;;;;;;;5092353;28;20442;-71
2023/07/26 10:48:48;;;;;;;56.17;1.90;;;;;;;;;;5092248;28;20442;-71
2023/07/26 10:51:26;;;;;;;56.33;1.90;;;;;;;;;;5091996;28;20446;-71
2023/07/26 10:53:54;;;;;;;56.07;1.97;;;;;;;;;;5082028;28;20451;-71
2023/07/26 10:56:23;;;;;;;56.17;1.97;;;;;;;;;;5091402;28;20454;-69
2023/07/26 10:58:51;;;;;;;56.70;2.17;;;;;;;;;;5092144;28;20482;-71
2023/07/26 11:01:30;;;;;;;56.60;2.10;;;;;;;;;;5091964;28;20450;-71
2023/07/26 11:03:57;;;;;;;56.10;1.80;;;;;;;;;;5091993;28;20442;-70
2023/07/26 11:06:24;;;;;;;56.43;1.77;;;;;;;;;;5091900;28;20830;-72
2023/07/26 11:08:53;;;;;;;56.40;1.60;;;;;;;;;;5092223;28;20525;-71
2023/07/26 11:11:20;;;;;;;55.87;1.70;;;;;;;;;;5091725;28;20454;-71
2023/07/26 11:13:47;;;;;;;56.10;1.97;;;;;;;;;;5091920;28;20470;-71
2023/07/26 11:16:14;;;;;;;55.87;1.77;;;;;;;;;;5091712;28;20451;-71
2023/07/26 11:18:43;;;;;;;56.27;2.00;;;;;;;;;;5091667;28;20478;-71
2023/07/26 11:21:15;;;;;;;56.37;2.10;;;;;;;;;;5091424;28;20811;-71
2023/07/26 11:23:42;;;;;;;56.57;2.17;;;;;;;;;;5091007;28;20470;-70
2023/07/26 11:26:09;;;;;;;56.20;1.90;;;;;;;;;;5091480;28;20830;-71
2023/07/26 11:28:37;;;;;;;56.50;2.00;;;;;;;;;;5091642;28;20439;-71
2023/07/26 11:31:05;;;;;;;56.47;1.80;;;;;;;;;;5090469;28;20498;-71
2023/07/26 11:33:33;;;;;;;56.17;1.90;;;;;;;;;;5090416;28;20502;-70
2023/07/26 11:36:05;;;;;;;55.77;1.80;;;;;;;;;;5076776;28;20509;-70
2023/07/26 11:38:32;;;;;;;56.10;1.80;;;;;;;;;;5070852;28;20994;-71
2023/07/26 11:41:00;;;;;;;56.40;1.80;;;;;;;;;;5070304;28;20466;-71
2023/07/26 11:43:28;;;;;;;55.30;1.80;;;;;;;;;;5069620;28;20471;-71
2023/07/26 11:45:55;;;;;;;55.87;1.60;;;;;;;;;;5070556;28;20443;-71
2023/07/26 11:48:23;;;;;;;56.00;1.90;;;;;;;;;;5070049;28;20498;-71
2023/07/26 11:50:54;;;;;;;56.13;2.00;;;;;;;;;;5070571;28;20458;-71
2023/07/26 11:53:28;;;;;;;55.67;1.57;;;;;;;;;;5071130;28;20467;-72
2023/07/26 11:55:55;;;;;;;56.20;1.70;;;;;;;;;;5071112;28;20471;-71
2023/07/26 11:58:22;;;;;;;56.27;2.07;;;;;;;;;;5071054;28;20479;-71
2023/07/26 12:00:50;;;;;;;56.67;1.87;;;;;;;;;;5070968;28;20454;-71
2023/07/26 12:03:17;;;;;;;56.07;1.90;;;;;;;;;;5070869;28;20549;-69
2023/07/26 12:05:45;;;;;;;55.77;1.80;;;;;;;;;;5070962;28;20816;-70
2023/07/26 12:08:12;;;;;;;55.83;1.73;;;;;;;;;;5073458;28;20442;-71
2023/07/26 12:10:41;;;;;;;56.10;1.77;;;;;;;;;;5074381;28;20459;-70
2023/07/26 12:13:09;;;;;;;56.07;1.63;;;;;;;;;;5074615;28;20550;-72
2023/07/26 12:15:52;;;;;;;55.77;1.67;;;;;;;;;;5074825;28;20458;-72
2023/07/26 12:18:19;;;;;;;56.17;1.70;;;;;;;;;;5074950;28;20532;-69
2023/07/26 12:20:57;;;;;;;56.10;1.67;;;;;;;;;;5074694;28;20447;-72
2023/07/26 12:23:24;;;;;;;55.57;1.60;;;;;;;;;;5074559;28;20471;-71
2023/07/26 12:25:54;;;;;;;56.10;1.57;;;;;;;;;;5074671;28;20451;-72
2023/07/26 12:28:21;;;;;;;56.67;2.00;;;;;;;;;;5073755;28;20443;-71
2023/07/26 12:30:53;;;;;;;56.40;2.00;;;;;;;;;;5080792;28;20443;-71
2023/07/26 12:33:20;;;;;;;56.47;2.10;;;;;;;;;;5087024;28;20467;-72
2023/07/26 12:35:47;;;;;;;56.60;2.00;;;;;;;;;;5089048;28;20534;-71
2023/07/26 12:38:17;;;;;;;56.17;1.90;;;;;;;;;;5087249;28;20486;-70
2023/07/26 12:40:45;;;;;;;56.67;2.10;;;;;;;;;;5094520;28;20450;-71
2023/07/26 12:43:27;;;;;;;56.43;1.93;;;;;;;;;;5094735;28;20868;-71
2023/07/26 12:45:54;;;;;;;56.20;1.80;;;;;;;;;;5094972;28;20450;-71
2023/07/26 12:48:22;;;;;;;56.80;1.87;;;;;;;;;;5094663;28;20448;-71
2023/07/26 12:50:50;;;;;;;56.37;2.00;;;;;;;;;;5094180;28;20537;-71
2023/07/26 12:53:17;;;;;;;55.97;1.90;;;;;;;;;;5094455;28;20470;-71
2023/07/26 12:55:45;;;;;;;56.60;1.87;;;;;;;;;;5094221;28;20556;-72
2023/07/26 12:58:12;;;;;;;56.40;1.90;;;;;;;;;;5094457;28;20446;-71
2023/07/26 13:00:40;;;;;;;56.27;2.17;;;;;;;;;;5094234;28;20446;-71
2023/07/26 13:03:07;;;;;;;56.07;2.00;;;;;;;;;;5094127;28;20844;-71
2023/07/26 13:05:35;;;;;;;57.07;2.67;;;;;;;;;;5094196;28;20549;-71
2023/07/26 13:08:02;;;;;;;56.13;1.90;;;;;;;;;;5094351;28;20453;-71
2023/07/26 13:10:29;;;;;;;56.60;2.30;;;;;;;;;;5094239;28;20438;-70
2023/07/26 13:12:57;;;;;;;56.60;2.17;;;;;;;;;;5094080;28;20462;-71
2023/07/26 13:15:24;;;;;;;56.50;1.90;;;;;;;;;;5093912;28;20446;-71
2023/07/26 13:17:53;;;;;;;56.47;2.00;;;;;;;;;;5093412;28;20458;-71
2023/07/26 13:20:20;;;;;;;56.50;2.50;;;;;;;;;;5093914;28;20477;-71
2023/07/26 13:22:48;;;;;;;56.17;2.10;;;;;;;;;;5093863;28;20476;-71
2023/07/26 13:25:15;;;;;;;55.83;1.70;;;;;;;;;;5094183;28;20594;-71
2023/07/26 13:27:42;;;;;;;56.30;1.90;;;;;;;;;;5093870;28;20448;-72
2023/07/26 13:30:10;;;;;;;57.27;2.13;;;;;;;;;;5093335;28;20439;-71
2023/07/26 13:32:37;;;;;;;55.87;1.70;;;;;;;;;;5093748;28;20470;-72
2023/07/26 13:35:07;;;;;;;56.13;1.80;;;;;;;;;;5093832;28;20453;-71
2023/07/26 13:37:36;;;;;;;55.97;1.70;;;;;;;;;;5093637;28;20519;-70
2023/07/26 13:40:04;;;;;;;56.07;1.70;;;;;;;;;;5093384;28;20521;-70
2023/07/26 13:42:31;;;;;;;56.47;2.20;;;;;;;;;;5093242;28;20474;-71
2023/07/26 13:44:58;;;;;;;56.20;1.93;;;;;;;;;;5093300;28;20446;-69
2023/07/26 13:47:25;;;;;;;56.57;2.27;;;;;;;;;;5093794;28;20452;-71
2023/07/26 13:49:52;;;;;;;56.60;2.00;;;;;;;;;;5093352;28;20454;-70
2023/07/26 13:52:21;;;;;;;56.47;2.17;;;;;;;;;;5093235;28;20474;-70
2023/07/26 13:54:48;;;;;;;56.77;2.17;;;;;;;;;;5093083;28;20458;-70
2023/07/26 13:57:15;;;;;;;56.57;2.20;;;;;;;;;;5093333;28;20492;-70
2023/07/26 13:59:42;;;;;;;56.40;2.10;;;;;;;;;;5093356;28;20490;-71
2023/07/26 14:02:09;;;;;;;56.37;2.17;;;;;;;;;;5092959;28;20462;-70
2023/07/26 14:04:37;;;;;;;56.10;2.00;;;;;;;;;;5093091;28;21021;-70
2023/07/26 14:07:04;;;;;;;56.90;2.23;;;;;;;;;;5093001;28;20450;-70
2023/07/26 14:09:33;;;;;;;56.00;1.90;;;;;;;;;;5093129;28;21016;-71
2023/07/26 14:12:00;;;;;;;56.60;2.30;;;;;;;;;;5092546;28;20895;-71
2023/07/26 14:14:27;;;;;;;56.40;2.00;;;;;;;;;;5093131;28;20820;-70
2023/07/26 14:16:55;;;;;;;57.27;2.77;;;;;;;;;;5093010;28;20446;-69
2023/07/26 14:19:22;;;;;;;56.17;2.10;;;;;;;;;;5092697;28;20482;-70
2023/07/26 14:21:49;;;;;;;56.30;2.70;;;;;;;;;;5092421;28;20466;-70
2023/07/26 14:24:16;;;;;;;56.20;1.77;;;;;;;;;;5092963;28;20450;-70
2023/07/26 14:26:44;;;;;;;56.63;2.20;;;;;;;;;;5092773;28;20521;-70
2023/07/26 14:29:12;;;;;;;55.77;1.80;;;;;;;;;;5092359;28;20511;-70
2023/07/26 14:31:39;;;;;;;55.87;2.00;;;;;;;;;;5091814;28;20446;-71
2023/07/26 14:34:06;;;;;;;56.00;1.70;;;;;;;;;;5092581;28;20980;-71
2023/07/26 14:36:33;;;;;;;56.10;1.83;;;;;;;;;;5092421;28;20452;-71